Time;durP1;ratioP1;P1;durP2;ratioP2;P2;SDS_P1;SDS_P2;PMS_P1;PMS_P2;Temp;Humidity;BMP_temperature;BMP_pressure;BME280_temperature;BME280_humidity;BME280_pressure;Samples;Min_cycle;Max_cycle;Signal;HPM_P1;HPM_P2
2023/03/27 00:04:08;;;;;;;3.10;0.35;;;5.00;1.00;;;;;;20732150;28;20037;-41
2023/03/27 00:14:10;;;;;;;1.15;0.60;;;5.10;1.00;;;;;;20728443;28;20041;-41
2023/03/27 00:24:11;;;;;;;0.43;0.15;;;5.20;1.00;;;;;;20719863;28;20034;-41
2023/03/27 00:34:12;;;;;;;11.05;0.95;;;5.30;1.00;;;;;;20740920;28;20046;-41
2023/03/27 00:44:26;;;;;;;0.63;0.13;;;5.20;1.00;;;;;;20735494;28;20041;-41
2023/03/27 00:54:31;;;;;;;2.75;0.30;;;5.00;1.00;;;;;;20717015;28;20034;-41
2023/03/27 01:04:35;;;;;;;1.67;0.63;;;4.70;1.00;;;;;;20733704;28;20049;-41
2023/03/27 01:15:01;;;;;;;1.27;0.57;;;4.50;1.00;;;;;;20721551;28;20033;-41
2023/03/27 01:25:32;;;;;;;2.08;0.25;;;4.40;1.00;;;;;;20714647;28;20041;-41
2023/03/27 01:35:52;;;;;;;1.35;0.13;;;4.50;1.00;;;;;;20721871;28;20053;-41
2023/03/27 01:46:01;;;;;;;1.52;0.35;;;4.60;1.00;;;;;;20797693;28;20055;-41
2023/03/27 01:56:17;;;;;;;0.20;0.10;;;4.70;1.00;;;;;;20785188;28;20033;-41
2023/03/27 02:06:25;;;;;;;0.73;0.27;;;4.70;1.00;;;;;;20790302;28;20056;-41
2023/03/27 02:16:32;;;;;;;3.13;0.60;;;4.60;1.00;;;;;;20774674;28;20309;-41
2023/03/27 02:26:33;;;;;;;0.85;0.60;;;4.40;1.00;;;;;;20759376;28;20041;-41
2023/03/27 02:36:42;;;;;;;1.77;0.32;;;4.10;1.00;;;;;;20754758;28;20431;-41
2023/03/27 02:46:57;;;;;;;1.27;0.63;;;3.90;1.00;;;;;;20717906;28;20042;-41
2023/03/27 02:57:04;;;;;;;1.70;0.70;;;3.80;1.00;;;;;;20733473;28;20033;-41
2023/03/27 03:07:05;;;;;;;1.73;0.82;;;3.70;1.00;;;;;;20731356;28;20053;-41
2023/03/27 03:17:06;;;;;;;0.70;0.30;;;3.60;1.00;;;;;;20722746;28;20045;-41
2023/03/27 03:27:07;;;;;;;6.43;0.85;;;3.50;1.00;;;;;;20722965;28;20042;-41
2023/03/27 03:37:11;;;;;;;0.75;0.25;;;3.30;1.00;;;;;;20718283;28;20046;-41
2023/03/27 03:47:13;;;;;;;1.92;0.93;;;3.20;1.00;;;;;;20718523;28;20060;-41
2023/03/27 03:57:14;;;;;;;0.98;0.30;;;3.20;1.00;;;;;;20736085;28;20037;-41
2023/03/27 04:07:16;;;;;;;0.45;0.20;;;3.30;1.00;;;;;;20787864;28;20045;-41
2023/03/27 04:17:17;;;;;;;1.42;0.63;;;3.30;1.00;;;;;;20815952;28;20052;-41
2023/03/27 04:27:22;;;;;;;4.60;0.88;;;3.30;1.00;;;;;;20740742;28;20045;-41
2023/03/27 04:37:24;;;;;;;0.73;0.30;;;3.20;1.00;;;;;;20708605;28;20509;-41
2023/03/27 04:47:25;;;;;;;1.05;0.28;;;3.20;6.40;;;;;;20715363;28;20639;-41
2023/03/27 04:57:29;;;;;;;1.52;0.30;;;3.40;7.60;;;;;;20712972;28;20049;-41
2023/03/27 05:07:30;;;;;;;2.05;0.90;;;3.40;6.00;;;;;;20715591;28;20056;-41
2023/03/27 05:17:31;;;;;;;2.92;0.98;;;3.50;1.70;;;;;;20713912;28;20038;-41
2023/03/27 05:27:33;;;;;;;3.28;0.50;;;3.50;1.00;;;;;;20720114;28;21069;-41
2023/03/27 05:37:35;;;;;;;1.08;0.50;;;3.40;1.00;;;;;;20714451;28;20049;-41
2023/03/27 05:47:53;;;;;;;2.17;1.10;;;3.10;1.00;;;;;;20713495;28;20516;-41
2023/03/27 05:57:54;;;;;;;1.20;0.43;;;3.10;1.00;;;;;;20738131;28;20045;-41
2023/03/27 06:07:57;;;;;;;1.50;0.63;;;3.10;3.00;;;;;;20713854;28;20497;-41
2023/03/27 06:17:59;;;;;;;2.30;1.05;;;3.30;1.00;;;;;;20729306;28;20044;-41
2023/03/27 06:28:03;;;;;;;1.05;0.47;;;3.30;1.00;;;;;;20734138;28;20038;-41
2023/03/27 06:38:05;;;;;;;1.35;0.52;;;3.50;1.00;;;;;;20723963;28;20045;-41
2023/03/27 06:48:07;;;;;;;2.88;0.43;;;3.90;1.00;;;;;;20733911;28;20140;-41
2023/03/27 06:58:13;;;;;;;1.38;0.55;;;3.70;1.00;;;;;;20726703;28;20041;-41
2023/03/27 07:08:15;;;;;;;1.17;0.60;;;3.80;1.00;;;;;;20728126;28;20038;-41
2023/03/27 07:18:16;;;;;;;3.08;0.68;;;4.10;1.00;;;;;;20786485;28;20064;-41
2023/03/27 07:28:18;;;;;;;4.38;0.43;;;4.50;1.00;;;;;;20790138;28;20042;-41
2023/03/27 07:38:19;;;;;;;2.65;0.60;;;4.80;1.00;;;;;;20742470;28;20041;-41
2023/03/27 07:48:21;;;;;;;1.35;0.80;;;5.20;1.00;;;;;;20745691;28;20053;-41
2023/03/27 07:58:22;;;;;;;0.77;0.20;;;5.80;1.00;;;;;;20747208;28;20030;-41
2023/03/27 08:08:24;;;;;;;2.42;0.20;;;6.00;1.00;;;;;;20752301;28;20061;-41
2023/03/27 08:18:25;;;;;;;0.45;0.32;;;5.30;1.00;;;;;;20734887;28;20606;-41
2023/03/27 08:28:28;;;;;;;0.68;0.38;;;5.60;1.00;;;;;;20745332;28;20049;-41
2023/03/27 08:38:32;;;;;;;0.55;0.20;;;6.20;1.00;;;;;;20740697;28;20041;-41
2023/03/27 08:48:41;;;;;;;0.70;0.38;;;6.50;1.00;;;;;;20733079;28;20042;-41
2023/03/27 08:58:43;;;;;;;3.08;0.38;;;6.90;1.00;;;;;;20765025;28;20037;-41
2023/03/27 09:09:02;;;;;;;5.97;1.02;;;7.10;1.00;;;;;;20733741;28;20034;-41
2023/03/27 09:19:34;;;;;;;3.03;0.93;;;7.70;1.00;;;;;;20716615;28;20041;-41
2023/03/27 09:29:40;;;;;;;0.43;0.25;;;8.10;1.00;;;;;;20729670;28;20073;-41
2023/03/27 09:39:45;;;;;;;0.40;0.10;;;5.80;1.00;;;;;;20711434;28;20076;-41
2023/03/27 09:49:51;;;;;;;;;;;4.50;1.00;;;;;;20723632;28;20045;-41
2023/03/27 10:00:06;;;;;;;4.60;0.70;;;5.00;1.00;;;;;;20796994;28;20020;-41
2023/03/27 10:10:14;;;;;;;1.88;0.20;;;5.90;9.70;;;;;;20731337;28;20218;-41
2023/03/27 10:20:18;;;;;;;1.92;0.40;;;6.70;1.00;;;;;;20760368;28;20605;-41
2023/03/27 10:30:34;;;;;;;1.05;0.20;;;7.50;1.00;;;;;;20727122;28;20400;-41
2023/03/27 10:40:38;;;;;;;1.02;0.35;;;8.30;1.00;;;;;;20721925;28;20503;-41
2023/03/27 10:50:52;;;;;;;1.00;0.30;;;8.10;1.00;;;;;;20721189;28;20210;-41
2023/03/27 11:01:00;;;;;;;4.35;0.30;;;7.70;1.00;;;;;;20763748;28;20186;-41
2023/03/27 11:11:12;;;;;;;1.15;0.30;;;8.60;1.00;;;;;;20760206;28;20325;-41
2023/03/27 11:21:21;;;;;;;1.60;0.40;;;9.00;1.00;;;;;;20722957;28;20033;-41
2023/03/27 11:31:45;;;;;;;6.35;0.98;;;9.70;1.00;;;;;;20779799;28;20037;-41
2023/03/27 11:41:55;;;;;;;;;;;9.90;1.00;;;;;;20801003;28;20037;-41
2023/03/27 11:52:02;;;;;;;0.82;0.28;;;9.80;1.00;;;;;;20721190;28;21998;-42
2023/03/27 12:02:22;;;;;;;;;;;10.40;1.00;;;;;;20791857;28;20202;-41
2023/03/27 12:12:48;;;;;;;2.55;0.65;;;10.30;1.00;;;;;;20765240;28;19936;-41
2023/03/27 12:23:01;;;;;;;8.30;0.32;;;9.60;1.00;;;;;;20797380;28;20064;-41
2023/03/27 12:33:30;;;;;;;1.58;0.73;;;8.20;1.00;;;;;;20726098;28;20049;-41
2023/03/27 12:43:40;;;;;;;1.23;0.40;;;8.70;1.00;;;;;;20745241;28;20099;-41
2023/03/27 12:54:01;;;;;;;2.35;0.70;;;9.30;1.00;;;;;;20720115;28;20071;-41
2023/03/27 13:04:05;;;;;;;6.18;1.02;;;9.80;1.00;;;;;;20703637;28;20044;-41
2023/03/27 13:14:17;;;;;;;1.60;0.65;;;8.70;1.00;;;;;;20749410;28;20049;-41
2023/03/27 13:24:21;;;;;;;3.30;0.38;;;7.70;1.00;;;;;;20801089;28;20033;-41
2023/03/27 13:34:26;;;;;;;1.08;0.60;;;7.90;1.00;;;;;;20789929;28;20037;-41
2023/03/27 13:44:27;;;;;;;1.25;0.25;;;9.40;1.00;;;;;;20745406;28;20057;-42
2023/03/27 13:54:53;;;;;;;3.53;1.38;;;11.70;1.00;;;;;;20711857;28;20041;-42
2023/03/27 14:05:08;;;;;;;1.42;0.50;;;12.20;1.00;;;;;;20708925;28;20485;-41
2023/03/27 14:15:43;;;;;;;0.93;0.30;;;12.20;1.00;;;;;;20716420;28;20260;-42
2023/03/27 14:26:04;;;;;;;2.38;0.60;;;11.60;1.00;;;;;;20786326;28;20045;-42
2023/03/27 14:36:15;;;;;;;1.25;0.30;;;11.70;1.00;;;;;;20774452;28;20518;-41
2023/03/27 14:46:19;;;;;;;0.50;0.15;;;10.70;1.00;;;;;;20733420;28;20165;-41
2023/03/27 14:56:36;;;;;;;2.83;0.98;;;10.40;1.00;;;;;;20706329;28;20041;-41
2023/03/27 15:06:38;;;;;;;2.17;0.80;;;9.30;1.00;;;;;;20712808;28;20405;-42
2023/03/27 15:16:40;;;;;;;1.08;0.32;;;9.30;1.00;;;;;;20697134;28;20121;-41
2023/03/27 15:26:41;;;;;;;3.03;1.40;;;8.60;1.00;;;;;;20737503;28;20037;-41
2023/03/27 15:36:45;;;;;;;2.45;0.45;;;7.60;1.00;;;;;;20712737;28;20056;-41
2023/03/27 15:46:55;;;;;;;1.73;0.32;;;7.70;1.00;;;;;;20726173;28;20037;-41
2023/03/27 15:57:02;;;;;;;2.92;0.30;;;7.80;1.00;;;;;;20714082;28;20057;-41
2023/03/27 16:07:09;;;;;;;2.10;0.40;;;8.40;1.00;;;;;;20746884;28;20871;-41
2023/03/27 16:17:14;;;;;;;1.75;0.85;;;8.10;1.00;;;;;;20740597;28;20029;-41
2023/03/27 16:27:16;;;;;;;1.02;0.30;;;7.70;1.00;;;;;;20722574;28;20673;-41
2023/03/27 16:37:20;;;;;;;1.42;0.52;;;7.50;1.00;;;;;;20739622;28;21281;-41
2023/03/27 16:47:22;;;;;;;1.13;0.40;;;7.40;1.00;;;;;;20736518;28;20047;-41
2023/03/27 16:57:24;;;;;;;1.55;0.55;;;7.20;1.00;;;;;;20724330;28;20033;-41
2023/03/27 17:07:26;;;;;;;1.30;0.40;;;7.20;1.00;;;;;;20712040;28;20034;-41
2023/03/27 17:17:29;;;;;;;1.38;0.20;;;6.60;1.00;;;;;;20731339;28;20041;-41
2023/03/27 17:27:31;;;;;;;0.93;0.40;;;6.40;1.00;;;;;;20709182;28;20045;-42
2023/03/27 17:37:52;;;;;;;2.20;0.63;;;6.10;1.00;;;;;;20672516;28;20436;-41
2023/03/27 17:47:53;;;;;;;2.50;1.45;;;5.90;1.00;;;;;;20722422;28;20408;-41
2023/03/27 17:57:54;;;;;;;1.83;0.68;;;5.90;1.00;;;;;;20687236;28;20049;-41
2023/03/27 18:08:05;;;;;;;4.85;2.70;;;5.80;1.00;;;;;;20712769;28;20045;-41
2023/03/27 18:18:10;;;;;;;11.73;5.43;;;5.70;1.00;;;;;;20700884;28;20129;-41
2023/03/27 18:28:12;;;;;;;3.05;1.48;;;5.60;1.00;;;;;;20724115;28;20044;-41
2023/03/27 18:38:14;;;;;;;4.05;1.55;;;5.40;1.00;;;;;;20790029;28;20045;-41
2023/03/27 18:48:15;;;;;;;5.97;2.45;;;5.30;1.00;;;;;;20754240;28;20041;-41
2023/03/27 18:58:17;;;;;;;12.80;2.20;;;5.20;1.00;;;;;;20712406;28;20064;-41
2023/03/27 19:08:20;;;;;;;10.77;1.60;;;5.10;1.00;;;;;;20714298;28;20563;-41
2023/03/27 19:18:21;;;;;;;4.10;1.83;;;5.10;1.00;;;;;;20772055;28;20044;-41
2023/03/27 19:28:22;;;;;;;4.72;1.33;;;5.00;1.00;;;;;;20782319;28;20492;-41
2023/03/27 19:38:23;;;;;;;2.20;0.65;;;4.80;1.00;;;;;;20739610;28;20489;-41
2023/03/27 19:48:24;;;;;;;4.45;1.90;;;4.70;1.00;;;;;;20720618;28;20856;-41
2023/03/27 19:58:27;;;;;;;2.92;0.90;;;4.50;1.00;;;;;;20737369;28;20110;-41
2023/03/27 20:08:32;;;;;;;0.25;0.10;;;4.50;1.00;;;;;;20761118;28;20041;-41
2023/03/27 20:18:33;;;;;;;1.00;0.40;;;4.40;1.00;;;;;;20786750;28;20054;-41
2023/03/27 20:28:35;;;;;;;2.08;0.73;;;4.40;1.00;;;;;;20669224;28;20042;-41
2023/03/27 20:38:36;;;;;;;0.98;0.65;;;4.20;1.00;;;;;;20741692;28;20049;-41
2023/03/27 20:48:40;;;;;;;0.82;0.50;;;4.10;1.00;;;;;;20805680;28;20596;-41
2023/03/27 20:58:43;;;;;;;2.15;0.82;;;4.00;1.00;;;;;;20767728;28;20512;-41
2023/03/27 21:08:44;;;;;;;1.25;0.40;;;4.00;1.00;;;;;;20741758;28;20044;-41
2023/03/27 21:18:45;;;;;;;1.77;0.60;;;4.00;1.00;;;;;;20808844;28;20624;-41
2023/03/27 21:28:51;;;;;;;2.80;1.25;;;3.70;1.00;;;;;;20799632;28;20060;-41
2023/03/27 21:38:52;;;;;;;2.00;1.08;;;3.60;1.00;;;;;;20804907;28;20029;-41
2023/03/27 21:48:53;;;;;;;2.10;0.70;;;3.50;1.00;;;;;;20788512;28;20215;-41
2023/03/27 21:58:56;;;;;;;1.90;0.60;;;3.50;1.00;;;;;;20728180;28;20119;-41
2023/03/27 22:08:57;;;;;;;5.68;0.90;;;3.30;1.00;;;;;;20734444;28;20044;-41
2023/03/27 22:18:59;;;;;;;1.25;0.40;;;3.20;1.00;;;;;;20794809;28;20041;-41
2023/03/27 22:29:01;;;;;;;1.25;0.30;;;3.20;1.00;;;;;;20722983;28;20047;-41
2023/03/27 22:39:02;;;;;;;5.03;0.85;;;3.30;1.00;;;;;;20713781;28;20057;-41
2023/03/27 22:49:03;;;;;;;1.63;0.70;;;3.20;1.00;;;;;;20752693;28;20084;-41
2023/03/27 22:59:04;;;;;;;1.98;0.82;;;3.20;1.00;;;;;;20747160;28;20042;-41
2023/03/27 23:09:07;;;;;;;1.08;0.60;;;3.10;1.00;;;;;;20773014;28;20037;-41
2023/03/27 23:19:08;;;;;;;0.57;0.38;;;3.20;1.00;;;;;;20773356;28;20037;-41
2023/03/27 23:29:09;;;;;;;1.80;0.68;;;3.20;1.00;;;;;;20722286;28;20087;-41
2023/03/27 23:39:10;;;;;;;0.98;0.57;;;3.00;1.00;;;;;;20769506;28;20056;-41
2023/03/27 23:49:12;;;;;;;3.40;0.32;;;2.80;1.00;;;;;;20725259;28;20589;-41
2023/03/27 23:59:14;;;;;;;0.70;0.20;;;2.70;1.00;;;;;;20732449;28;20048;-41
